Time;durP1;ratioP1;P1;durP2;ratioP2;P2;SDS_P1;SDS_P2;PMS_P1;PMS_P2;Temp;Humidity;BMP_temperature;BMP_pressure;BME280_temperature;BME280_humidity;BME280_pressure;Samples;Min_cycle;Max_cycle;Signal;HPM_P1;HPM_P2
2022/11/16 00:00:42;;;;;;;26.60;16.95;;;5.60;99.90;;;;;;2033021;29;20379;-71
2022/11/16 00:01:43;;;;;;;25.80;16.90;;;5.60;99.90;;;;;;2033972;29;20035;-71
2022/11/16 00:02:44;;;;;;;26.88;17.50;;;5.70;99.90;;;;;;2032898;29;20355;-71
2022/11/16 00:03:46;;;;;;;27.80;17.75;;;5.70;99.90;;;;;;2040259;29;20478;-70
2022/11/16 00:04:48;;;;;;;26.58;17.20;;;5.70;99.90;;;;;;2039877;29;20027;-71
2022/11/16 00:06:01;;;;;;;28.08;18.08;;;5.60;99.90;;;;;;2032556;29;20123;-69
2022/11/16 00:07:02;;;;;;;27.15;17.55;;;5.60;99.90;;;;;;2032917;29;20016;-70
2022/11/16 00:08:03;;;;;;;26.23;17.48;;;5.60;99.90;;;;;;2032430;29;20020;-72
2022/11/16 00:09:21;;;;;;;27.70;17.50;;;5.70;99.90;;;;;;2032030;29;20390;-73
2022/11/16 00:10:22;;;;;;;27.42;17.58;;;5.70;99.90;;;;;;2032436;29;20123;-72
2022/11/16 00:11:23;;;;;;;25.33;17.02;;;5.70;99.90;;;;;;2031788;29;20082;-71
2022/11/16 00:12:24;;;;;;;26.88;16.85;;;5.70;99.90;;;;;;2033033;29;20036;-72
2022/11/16 00:13:24;;;;;;;24.67;16.40;;;5.70;99.90;;;;;;2032532;29;20119;-70
2022/11/16 00:14:29;;;;;;;25.33;16.42;;;5.70;99.90;;;;;;2032501;29;20020;-72
2022/11/16 00:15:29;;;;;;;24.35;16.67;;;5.70;99.90;;;;;;2032952;29;20036;-71
2022/11/16 00:16:30;;;;;;;24.00;15.95;;;5.70;99.90;;;;;;2033089;29;20043;-72
2022/11/16 00:17:32;;;;;;;26.38;16.65;;;5.70;99.90;;;;;;2040104;29;20394;-71
2022/11/16 00:18:33;;;;;;;23.63;15.80;;;5.70;99.90;;;;;;2032000;29;20495;-70
2022/11/16 00:19:34;;;;;;;24.88;16.40;;;5.70;99.90;;;;;;2031774;29;20407;-70
2022/11/16 00:20:37;;;;;;;24.23;16.20;;;5.70;99.90;;;;;;2039430;29;20042;-71
2022/11/16 00:21:39;;;;;;;24.42;16.27;;;5.70;99.90;;;;;;2042160;29;20514;-70
2022/11/16 00:22:39;;;;;;;24.67;15.90;;;5.60;99.90;;;;;;2035454;29;20403;-70
2022/11/16 00:23:40;;;;;;;24.52;16.45;;;5.60;99.90;;;;;;2034852;29;20039;-70
2022/11/16 00:24:41;;;;;;;25.85;16.80;;;5.60;99.90;;;;;;2035518;29;20080;-71
2022/11/16 00:25:41;;;;;;;22.92;15.88;;;5.60;99.90;;;;;;2035564;29;20115;-70
2022/11/16 00:26:43;;;;;;;24.65;16.67;;;5.60;99.90;;;;;;2036409;29;20083;-70
2022/11/16 00:27:43;;;;;;;24.80;16.60;;;5.60;99.90;;;;;;2037384;29;20032;-72
2022/11/16 00:28:44;;;;;;;23.77;15.82;;;5.60;99.90;;;;;;2036825;29;20032;-71
2022/11/16 00:29:45;;;;;;;23.67;15.88;;;5.60;99.90;;;;;;2032965;29;20047;-70
2022/11/16 00:30:45;;;;;;;24.60;16.25;;;5.60;99.90;;;;;;2023838;29;20028;-72
2022/11/16 00:31:47;;;;;;;25.58;16.73;;;5.60;99.90;;;;;;2032370;29;20032;-71
2022/11/16 00:32:47;;;;;;;23.00;15.30;;;5.60;99.90;;;;;;2039888;29;20038;-71
2022/11/16 00:33:49;;;;;;;22.35;14.98;;;5.60;99.90;;;;;;2034395;29;20031;-71
2022/11/16 00:34:53;;;;;;;25.50;16.60;;;5.60;99.90;;;;;;2034224;29;20044;-71
2022/11/16 00:35:53;;;;;;;24.58;16.23;;;5.60;99.90;;;;;;2032151;29;20091;-71
2022/11/16 00:36:54;;;;;;;22.35;15.23;;;5.60;99.90;;;;;;2031914;29;20571;-70
2022/11/16 00:37:55;;;;;;;21.98;15.25;;;5.60;99.90;;;;;;2032003;29;20509;-70
2022/11/16 00:38:55;;;;;;;21.75;15.05;;;5.50;99.90;;;;;;2031671;29;20124;-70
2022/11/16 00:39:56;;;;;;;24.33;16.30;;;5.50;99.90;;;;;;2039721;29;20079;-69
2022/11/16 00:40:57;;;;;;;23.23;15.63;;;5.50;99.90;;;;;;2032131;29;20385;-70
2022/11/16 00:41:57;;;;;;;24.85;16.10;;;5.50;99.90;;;;;;2039581;29;20050;-70
2022/11/16 00:42:58;;;;;;;24.17;16.15;;;5.50;99.90;;;;;;2039865;29;20051;-70
2022/11/16 00:43:59;;;;;;;23.38;14.95;;;5.50;99.90;;;;;;2032538;29;20518;-71
2022/11/16 00:44:59;;;;;;;23.40;15.50;;;5.50;99.90;;;;;;2032651;29;20103;-70
2022/11/16 00:46:01;;;;;;;23.13;15.48;;;5.50;99.90;;;;;;2031766;29;20498;-70
2022/11/16 00:47:02;;;;;;;21.55;14.48;;;5.50;99.90;;;;;;2031863;29;20031;-70
2022/11/16 00:48:03;;;;;;;22.13;15.07;;;5.50;99.90;;;;;;2031798;29;20086;-70
2022/11/16 00:49:04;;;;;;;20.73;14.48;;;5.50;99.90;;;;;;2031776;29;20438;-71
2022/11/16 00:50:05;;;;;;;22.50;15.35;;;5.50;99.90;;;;;;2032333;29;20017;-70
2022/11/16 00:51:06;;;;;;;20.88;15.00;;;5.50;99.90;;;;;;2031015;29;20119;-70
2022/11/16 00:52:07;;;;;;;22.30;15.00;;;5.50;99.90;;;;;;2024028;29;20020;-70
2022/11/16 00:53:12;;;;;;;22.88;14.98;;;5.60;99.90;;;;;;2031740;29;20024;-70
2022/11/16 00:54:13;;;;;;;20.52;14.57;;;5.60;99.90;;;;;;2031561;29;20080;-69
2022/11/16 00:55:13;;;;;;;23.58;15.07;;;5.60;99.90;;;;;;2023985;29;20109;-69
2022/11/16 00:56:15;;;;;;;22.35;15.48;;;5.60;99.90;;;;;;2023968;29;20032;-68
2022/11/16 00:57:17;;;;;;;22.48;15.32;;;5.60;99.90;;;;;;2024054;29;20519;-68
2022/11/16 00:58:19;;;;;;;21.63;14.90;;;5.60;99.90;;;;;;2023834;29;20036;-68
2022/11/16 00:59:24;;;;;;;22.52;15.20;;;5.60;99.90;;;;;;2024456;29;20059;-68
2022/11/16 01:00:28;;;;;;;22.00;15.05;;;5.60;99.90;;;;;;2024336;29;20464;-69
2022/11/16 01:01:29;;;;;;;22.50;14.57;;;5.60;99.90;;;;;;2023456;29;20047;-69
2022/11/16 01:02:29;;;;;;;23.02;14.90;;;5.60;99.90;;;;;;2031693;29;20088;-69
2022/11/16 01:03:30;;;;;;;21.02;14.65;;;5.60;99.90;;;;;;2031740;29;20348;-70
2022/11/16 01:04:31;;;;;;;22.05;14.73;;;5.60;99.90;;;;;;2031485;29;20047;-70
2022/11/16 01:05:33;;;;;;;21.15;14.43;;;5.60;99.90;;;;;;2038822;29;20046;-70
2022/11/16 01:06:34;;;;;;;20.58;14.48;;;5.60;99.90;;;;;;2039490;29;20177;-70
2022/11/16 01:07:36;;;;;;;21.77;14.35;;;5.60;99.90;;;;;;2032262;29;20100;-69
2022/11/16 01:08:38;;;;;;;22.02;14.45;;;5.60;99.90;;;;;;2039174;29;20028;-69
2022/11/16 01:09:39;;;;;;;20.17;13.98;;;5.60;99.90;;;;;;2039220;29;20031;-69
2022/11/16 01:10:40;;;;;;;21.80;14.70;;;5.70;99.90;;;;;;2031756;29;20479;-69
2022/11/16 01:13:03;;;;;;;23.92;15.05;;;5.70;99.90;;;;;;2039869;28;20020;-68
2022/11/16 01:14:07;;;;;;;21.70;14.70;;;5.70;99.90;;;;;;2039988;29;20359;-68
2022/11/16 01:15:09;;;;;;;20.98;13.85;;;5.70;99.90;;;;;;2039054;29;20031;-68
2022/11/16 01:16:14;;;;;;;20.77;14.23;;;5.70;99.90;;;;;;2031629;29;20043;-67
2022/11/16 01:17:15;;;;;;;21.33;14.75;;;5.70;99.90;;;;;;2039448;29;20023;-67
2022/11/16 01:18:15;;;;;;;20.40;14.15;;;5.70;99.90;;;;;;2040081;29;20034;-67
2022/11/16 01:19:16;;;;;;;20.50;14.10;;;5.60;99.90;;;;;;2040027;29;20056;-67
2022/11/16 01:20:20;;;;;;;21.02;14.25;;;5.60;99.90;;;;;;2038971;29;20035;-67
2022/11/16 01:21:22;;;;;;;23.38;14.77;;;5.60;99.90;;;;;;2031307;29;20040;-68
2022/11/16 01:22:22;;;;;;;21.35;14.32;;;5.60;99.90;;;;;;2031493;29;20032;-67
2022/11/16 01:23:23;;;;;;;22.33;15.23;;;5.60;99.90;;;;;;2039428;29;20120;-69
2022/11/16 01:24:25;;;;;;;22.00;15.07;;;5.60;99.90;;;;;;2038920;29;20542;-67
2022/11/16 01:25:26;;;;;;;21.33;14.88;;;5.60;99.90;;;;;;2039285;29;20028;-68
2022/11/16 01:26:27;;;;;;;21.00;14.48;;;5.60;99.90;;;;;;2039228;29;20513;-67
2022/11/16 01:27:28;;;;;;;23.98;15.45;;;5.60;99.90;;;;;;2031366;29;20047;-68
2022/11/16 01:28:30;;;;;;;23.85;15.70;;;5.60;99.90;;;;;;2031600;29;20036;-68
2022/11/16 01:29:31;;;;;;;22.02;14.88;;;5.70;99.90;;;;;;2031465;29;20040;-68
2022/11/16 01:30:35;;;;;;;22.33;14.25;;;5.70;99.90;;;;;;2031340;29;20025;-69
2022/11/16 01:31:40;;;;;;;22.27;14.70;;;5.70;99.90;;;;;;2039797;29;20067;-68
2022/11/16 01:32:41;;;;;;;21.30;14.32;;;5.70;99.90;;;;;;2047473;29;20047;-69
2022/11/16 01:33:41;;;;;;;22.15;14.65;;;5.60;99.90;;;;;;2039533;29;20086;-69
2022/11/16 01:34:50;;;;;;;23.00;14.50;;;5.60;99.90;;;;;;2039926;29;20036;-69
2022/11/16 01:35:58;;;;;;;21.88;14.23;;;5.60;99.90;;;;;;2039559;29;20035;-68
2022/11/16 01:36:59;;;;;;;21.88;14.15;;;5.60;99.90;;;;;;2031701;29;20093;-69
2022/11/16 01:38:03;;;;;;;22.52;14.80;;;5.60;99.90;;;;;;2031918;29;20083;-70
2022/11/16 01:39:05;;;;;;;21.40;14.15;;;5.60;99.90;;;;;;2031445;29;20032;-71
2022/11/16 01:40:16;;;;;;;24.17;15.23;;;5.60;99.90;;;;;;2032929;29;20039;-70
2022/11/16 01:41:21;;;;;;;21.67;14.20;;;5.60;99.90;;;;;;2031146;29;20448;-70
2022/11/16 01:42:28;;;;;;;23.52;13.93;;;5.70;99.90;;;;;;2032833;29;20032;-69
2022/11/16 01:43:54;;;;;;;22.15;14.38;;;5.60;99.90;;;;;;2032165;29;20036;-70
2022/11/16 01:45:05;;;;;;;22.45;13.85;;;5.70;99.90;;;;;;2033789;29;20024;-70
2022/11/16 01:46:06;;;;;;;23.77;15.20;;;5.70;99.90;;;;;;2032212;29;20032;-69
2022/11/16 01:47:10;;;;;;;22.10;14.50;;;5.70;99.90;;;;;;2031318;29;20032;-69
2022/11/16 01:48:18;;;;;;;21.70;14.13;;;5.70;99.90;;;;;;2031443;29;20046;-68
2022/11/16 01:49:21;;;;;;;22.17;14.32;;;5.70;99.90;;;;;;2039851;29;20036;-68
2022/11/16 01:50:24;;;;;;;22.42;14.70;;;5.70;99.90;;;;;;2038641;29;20036;-68
2022/11/16 01:51:26;;;;;;;22.75;15.05;;;5.70;99.90;;;;;;2038296;29;20027;-68
2022/11/16 01:52:30;;;;;;;21.05;13.75;;;5.80;99.90;;;;;;2047147;28;20027;-69
2022/11/16 01:53:31;;;;;;;22.20;14.98;;;5.80;99.90;;;;;;2048618;28;20110;-68
2022/11/16 01:54:38;;;;;;;21.73;14.93;;;5.80;99.90;;;;;;2039100;29;20788;-68
2022/11/16 01:55:42;;;;;;;22.00;13.95;;;5.80;99.90;;;;;;2042913;29;20028;-69
2022/11/16 01:57:22;;;;;;;21.95;14.65;;;5.70;99.90;;;;;;2049556;29;20032;-69
2022/11/16 01:58:30;;;;;;;22.27;14.35;;;5.80;99.90;;;;;;2057385;28;20023;-71
2022/11/16 01:59:54;;;;;;;22.55;15.20;;;5.70;99.90;;;;;;2043958;29;20118;-69
2022/11/16 02:00:56;;;;;;;23.38;15.00;;;5.70;99.90;;;;;;2039676;29;20066;-70
2022/11/16 02:02:08;;;;;;;22.88;14.52;;;5.70;99.90;;;;;;2047284;29;20110;-70
2022/11/16 02:03:09;;;;;;;23.50;14.85;;;5.70;99.90;;;;;;2047196;28;20027;-72
2022/11/16 02:04:20;;;;;;;22.67;14.60;;;5.70;99.90;;;;;;2040919;28;20027;-72
2022/11/16 02:05:39;;;;;;;24.13;15.45;;;5.60;99.90;;;;;;2038756;29;20036;-72
2022/11/16 02:06:42;;;;;;;23.23;15.13;;;5.70;99.90;;;;;;2040618;29;20036;-72
2022/11/16 02:09:54;;;;;;;25.95;15.38;;;5.70;99.90;;;;;;2046633;28;20147;-72
2022/11/16 02:11:22;;;;;;;23.25;14.48;;;5.70;99.90;;;;;;2041550;29;20062;-72
2022/11/16 02:12:44;;;;;;;25.35;15.82;;;5.70;99.90;;;;;;2039232;29;20054;-72
2022/11/16 02:14:27;;;;;;;25.13;15.82;;;5.60;99.90;;;;;;2044561;29;20031;-72
2022/11/16 02:15:44;;;;;;;23.23;14.98;;;5.60;99.90;;;;;;2044032;29;20110;-71
2022/11/16 02:17:03;;;;;;;22.98;14.27;;;5.60;99.90;;;;;;2036112;29;20028;-72
2022/11/16 02:18:33;;;;;;;23.10;15.02;;;5.60;99.90;;;;;;2035971;29;20561;-72
2022/11/16 02:19:58;;;;;;;25.88;15.77;;;5.60;99.90;;;;;;2041847;29;20399;-72
2022/11/16 02:21:12;;;;;;;27.52;16.08;;;5.60;99.90;;;;;;2041069;29;20032;-71
2022/11/16 02:22:51;;;;;;;24.83;15.93;;;5.60;99.90;;;;;;2041039;29;20035;-71
2022/11/16 02:24:13;;;;;;;24.42;14.95;;;5.60;99.90;;;;;;2030459;29;20066;-72
2022/11/16 02:25:45;;;;;;;26.10;16.33;;;5.60;99.90;;;;;;2031664;29;20685;-72
2022/11/16 02:26:57;;;;;;;26.60;15.98;;;5.60;99.90;;;;;;2034549;29;20051;-72
2022/11/16 02:28:18;;;;;;;26.30;16.10;;;5.60;99.90;;;;;;2039250;28;20027;-72
2022/11/16 02:29:41;;;;;;;24.40;15.43;;;5.60;99.90;;;;;;2043807;29;20073;-72
2022/11/16 02:30:45;;;;;;;27.40;17.02;;;5.60;99.90;;;;;;2043747;29;20027;-72
2022/11/16 02:32:00;;;;;;;26.88;16.50;;;5.60;99.90;;;;;;2038930;29;20024;-72
2022/11/16 02:33:11;;;;;;;26.30;16.10;;;5.60;99.90;;;;;;2038664;29;20031;-71
2022/11/16 02:34:20;;;;;;;26.42;16.52;;;5.60;99.90;;;;;;2042088;29;20038;-73
2022/11/16 02:35:50;;;;;;;24.45;15.60;;;5.70;99.90;;;;;;2042574;29;20046;-72
2022/11/16 02:36:54;;;;;;;25.58;16.02;;;5.70;99.90;;;;;;2034854;29;20036;-73
2022/11/16 02:38:00;;;;;;;25.55;16.15;;;5.70;99.90;;;;;;2038929;29;20034;-72
2022/11/16 02:39:06;;;;;;;25.10;15.88;;;5.70;99.90;;;;;;2039625;29;20395;-72
2022/11/16 02:40:11;;;;;;;27.42;17.08;;;5.70;99.90;;;;;;2038625;29;20095;-71
2022/11/16 02:41:17;;;;;;;25.77;16.48;;;5.70;99.90;;;;;;2036413;29;20703;-72
2022/11/16 02:42:29;;;;;;;26.05;16.25;;;5.70;99.90;;;;;;2050610;28;20047;-72
2022/11/16 02:43:51;;;;;;;25.27;15.45;;;5.70;99.90;;;;;;2049057;28;20151;-71
2022/11/16 02:44:54;;;;;;;24.20;15.38;;;5.70;99.90;;;;;;2046992;28;20035;-72
2022/11/16 02:46:01;;;;;;;27.95;16.67;;;5.70;99.90;;;;;;2038965;29;20027;-72
2022/11/16 02:47:07;;;;;;;26.70;16.02;;;5.70;99.90;;;;;;2039796;29;20043;-72
2022/11/16 02:48:13;;;;;;;24.30;15.68;;;5.70;99.90;;;;;;2038898;29;20062;-72
2022/11/16 02:49:17;;;;;;;26.70;16.05;;;5.70;99.90;;;;;;2038981;29;20075;-72
2022/11/16 02:50:22;;;;;;;26.52;16.67;;;5.70;99.90;;;;;;2038842;29;20028;-72
2022/11/16 02:51:25;;;;;;;28.63;17.08;;;5.70;99.90;;;;;;2030917;29;20115;-72
2022/11/16 02:52:28;;;;;;;27.88;16.27;;;5.80;99.90;;;;;;2031413;29;20036;-72
2022/11/16 02:53:35;;;;;;;26.77;16.20;;;5.80;99.90;;;;;;2031238;29;20638;-72
2022/11/16 02:54:36;;;;;;;24.98;15.90;;;5.80;99.90;;;;;;2031753;29;20100;-72
2022/11/16 02:55:37;;;;;;;27.25;16.42;;;5.80;99.90;;;;;;2031565;29;20472;-72
2022/11/16 02:56:42;;;;;;;25.48;16.17;;;5.80;99.90;;;;;;2031064;29;20548;-72
2022/11/16 02:57:43;;;;;;;24.45;15.27;;;5.80;99.90;;;;;;2033392;29;20068;-73
2022/11/16 02:58:47;;;;;;;25.10;16.08;;;5.80;99.90;;;;;;2033164;29;20031;-73
2022/11/16 02:59:53;;;;;;;28.33;16.45;;;5.80;99.90;;;;;;2035161;29;20060;-72
2022/11/16 03:01:07;;;;;;;26.85;16.67;;;5.80;99.90;;;;;;2040354;29;20020;-72
2022/11/16 03:02:26;;;;;;;26.55;16.05;;;5.80;99.90;;;;;;2032872;29;20080;-72
2022/11/16 03:03:51;;;;;;;26.05;16.13;;;5.80;99.90;;;;;;2031916;29;20036;-72
2022/11/16 03:05:30;;;;;;;24.65;15.60;;;5.80;99.90;;;;;;2027721;29;20028;-71
2022/11/16 03:06:38;;;;;;;22.70;14.88;;;5.80;99.90;;;;;;2037602;29;20050;-73
2022/11/16 03:07:51;;;;;;;25.42;15.77;;;5.90;99.90;;;;;;2032569;29;20083;-70
2022/11/16 03:08:59;;;;;;;26.17;15.65;;;5.80;99.90;;;;;;2033978;29;20067;-71
2022/11/16 03:10:04;;;;;;;24.73;15.65;;;5.90;99.90;;;;;;2032652;29;20522;-72
2022/11/16 03:12:31;;;;;;;25.88;15.82;;;5.90;99.90;;;;;;2032389;29;20439;-72
2022/11/16 03:13:35;;;;;;;26.08;15.60;;;5.90;99.90;;;;;;2032797;29;20028;-72
2022/11/16 03:14:41;;;;;;;25.88;16.30;;;5.90;99.90;;;;;;2039756;29;20083;-72
2022/11/16 03:15:47;;;;;;;24.40;15.85;;;5.90;99.90;;;;;;2040434;29;20035;-72
2022/11/16 03:16:52;;;;;;;24.08;15.48;;;5.90;99.90;;;;;;2032448;29;20400;-73
2022/11/16 03:17:53;;;;;;;24.95;15.25;;;5.90;99.90;;;;;;2025375;29;20036;-72
2022/11/16 03:18:58;;;;;;;23.85;15.48;;;5.90;99.90;;;;;;2025164;29;20036;-72
2022/11/16 03:20:13;;;;;;;26.10;16.08;;;5.90;99.90;;;;;;2025344;29;20025;-72
2022/11/16 03:21:42;;;;;;;24.27;14.68;;;5.90;99.90;;;;;;2025740;29;20119;-72
2022/11/16 03:22:58;;;;;;;24.40;15.10;;;5.90;99.90;;;;;;2028178;29;20032;-72
2022/11/16 03:23:59;;;;;;;22.48;14.23;;;5.90;99.90;;;;;;2026554;29;20491;-72
2022/11/16 03:25:00;;;;;;;23.15;14.60;;;5.90;99.90;;;;;;2033369;29;20044;-72
2022/11/16 03:26:06;;;;;;;22.10;14.48;;;5.90;99.90;;;;;;2034579;29;20040;-72
2022/11/16 03:27:40;;;;;;;21.98;14.05;;;5.90;99.90;;;;;;2034924;29;20027;-72
2022/11/16 03:29:07;;;;;;;21.05;13.48;;;6.00;99.90;;;;;;2034091;29;20031;-71
2022/11/16 03:30:08;;;;;;;20.58;13.00;;;6.00;99.90;;;;;;2037466;29;20453;-71
2022/11/16 03:31:18;;;;;;;19.85;13.43;;;6.10;99.90;;;;;;2039666;29;20035;-70
2022/11/16 03:32:48;;;;;;;21.77;13.48;;;6.10;99.90;;;;;;2032308;29;20032;-70
2022/11/16 03:33:55;;;;;;;21.90;13.30;;;6.10;99.90;;;;;;2024666;29;20071;-70
2022/11/16 03:35:02;;;;;;;19.50;12.98;;;6.20;99.90;;;;;;2032551;29;20058;-71
2022/11/16 03:36:26;;;;;;;20.77;13.07;;;6.30;99.90;;;;;;2032474;29;20036;-70
2022/11/16 03:37:28;;;;;;;21.13;13.50;;;6.30;99.90;;;;;;2032379;29;20095;-70
2022/11/16 03:38:33;;;;;;;21.33;13.18;;;6.30;99.90;;;;;;2032062;29;20068;-71
2022/11/16 03:39:37;;;;;;;18.70;12.38;;;6.40;99.90;;;;;;2024575;29;20032;-71
2022/11/16 03:40:40;;;;;;;21.10;13.65;;;6.40;99.90;;;;;;2024751;29;20040;-71
2022/11/16 03:41:43;;;;;;;19.60;12.88;;;6.50;99.90;;;;;;2024692;29;20403;-71
2022/11/16 03:42:48;;;;;;;20.30;13.40;;;6.50;99.90;;;;;;2024765;29;20037;-69
2022/11/16 03:43:50;;;;;;;19.83;13.25;;;6.50;99.90;;;;;;2032218;29;20029;-72
2022/11/16 03:44:53;;;;;;;21.58;13.35;;;6.50;99.90;;;;;;2032192;29;20123;-72
2022/11/16 03:45:55;;;;;;;20.10;13.18;;;6.60;99.90;;;;;;2032390;29;20024;-72
2022/11/16 03:46:57;;;;;;;21.80;13.55;;;6.60;99.90;;;;;;2024204;29;20495;-72
2022/11/16 03:47:59;;;;;;;20.50;13.63;;;6.60;99.90;;;;;;2024492;29;20058;-71
2022/11/16 03:49:00;;;;;;;19.05;13.10;;;6.60;99.90;;;;;;2031994;29;20467;-71
2022/11/16 03:50:06;;;;;;;18.52;12.45;;;6.60;99.90;;;;;;2024925;29;20051;-70
2022/11/16 03:51:09;;;;;;;17.73;12.18;;;6.70;99.90;;;;;;2031903;29;20213;-71
2022/11/16 03:52:10;;;;;;;18.65;12.50;;;6.70;99.90;;;;;;2040106;29;20034;-71
2022/11/16 03:53:11;;;;;;;19.45;12.52;;;6.70;99.90;;;;;;2040054;29;20024;-72
2022/11/16 03:54:12;;;;;;;18.23;12.02;;;6.70;99.90;;;;;;2031932;29;20127;-72
2022/11/16 03:55:14;;;;;;;17.23;11.90;;;6.70;99.90;;;;;;2024457;29;20025;-72
2022/11/16 03:56:17;;;;;;;18.20;12.45;;;6.70;99.90;;;;;;2024552;29;20021;-72
2022/11/16 03:57:19;;;;;;;18.50;12.13;;;6.70;99.90;;;;;;2024648;29;20035;-72
2022/11/16 03:58:26;;;;;;;20.20;13.07;;;6.70;99.90;;;;;;2025154;29;20088;-71
2022/11/16 03:59:28;;;;;;;17.55;12.32;;;6.70;99.90;;;;;;2024520;29;20091;-72
2022/11/16 04:00:29;;;;;;;17.90;11.68;;;6.80;99.90;;;;;;2024168;29;20100;-73
2022/11/16 04:01:30;;;;;;;18.15;12.43;;;6.80;99.90;;;;;;2032314;29;20036;-72
2022/11/16 04:02:30;;;;;;;17.83;12.05;;;6.70;99.90;;;;;;2040059;29;20039;-72
2022/11/16 04:03:32;;;;;;;17.08;12.05;;;6.70;99.90;;;;;;2032136;29;20040;-72
2022/11/16 04:24:55;;;;;;;17.75;11.38;;;6.80;99.90;;;;;;2032617;29;20032;-70
2022/11/16 04:25:58;;;;;;;16.95;10.93;;;6.90;99.90;;;;;;2039832;29;20024;-70
2022/11/16 04:28:26;;;;;;;16.30;11.18;;;6.80;99.90;;;;;;2032168;29;20043;-70
2022/11/16 04:29:34;;;;;;;17.08;11.60;;;6.90;99.90;;;;;;2031785;29;20156;-71
2022/11/16 04:38:35;;;;;;;15.90;11.48;;;6.90;99.90;;;;;;2040848;29;20035;-71
2022/11/16 04:39:36;;;;;;;15.65;11.02;;;6.90;99.90;;;;;;2040552;29;20063;-70
2022/11/16 04:40:38;;;;;;;15.27;10.95;;;6.90;99.90;;;;;;2032840;29;20150;-70
2022/11/16 04:43:02;;;;;;;15.55;10.95;;;6.90;99.90;;;;;;2027784;29;20032;-70
2022/11/16 04:44:07;;;;;;;17.92;11.75;;;6.90;99.90;;;;;;2025785;29;20032;-70
2022/11/16 04:47:48;;;;;;;16.48;10.88;;;6.90;99.90;;;;;;2038458;29;20550;-70
2022/11/16 04:48:49;;;;;;;15.25;10.70;;;6.90;99.90;;;;;;2032647;29;20020;-70
2022/11/16 04:49:50;;;;;;;16.27;10.60;;;6.90;99.90;;;;;;2032800;29;20068;-71
2022/11/16 04:50:51;;;;;;;16.75;11.57;;;6.90;99.90;;;;;;2033207;29;20116;-72
2022/11/16 04:51:52;;;;;;;17.05;11.15;;;6.90;99.90;;;;;;2024843;29;20443;-71
2022/11/16 04:52:53;;;;;;;15.65;10.93;;;6.90;99.90;;;;;;2032804;29;20059;-71
2022/11/16 04:53:54;;;;;;;15.70;11.15;;;6.80;99.90;;;;;;2040974;29;20131;-71
2022/11/16 04:54:56;;;;;;;17.90;11.80;;;6.80;99.90;;;;;;2032554;29;20032;-71
2022/11/16 04:55:57;;;;;;;15.77;11.15;;;6.80;99.90;;;;;;2025374;29;20020;-74
2022/11/16 04:56:58;;;;;;;15.43;10.57;;;6.80;99.90;;;;;;2025188;29;20044;-72
2022/11/16 04:58:00;;;;;;;16.23;10.93;;;6.80;99.90;;;;;;2033009;29;20020;-71
2022/11/16 04:59:01;;;;;;;18.60;11.18;;;6.80;99.90;;;;;;2033614;29;20411;-71
2022/11/16 05:00:05;;;;;;;16.30;11.32;;;6.80;99.90;;;;;;2033889;29;20780;-71
2022/11/16 05:01:07;;;;;;;15.93;10.77;;;6.80;99.90;;;;;;2040949;29;20737;-72
2022/11/16 05:02:08;;;;;;;15.00;10.45;;;6.80;99.90;;;;;;2040204;29;20031;-71
2022/11/16 05:03:12;;;;;;;15.60;10.70;;;6.80;99.90;;;;;;2031811;29;20655;-71
2022/11/16 05:04:13;;;;;;;16.80;11.45;;;6.80;99.90;;;;;;2023770;29;20032;-71
2022/11/16 05:05:13;;;;;;;16.20;10.80;;;6.80;99.90;;;;;;2031892;29;20486;-70
2022/11/16 05:06:16;;;;;;;17.08;10.88;;;6.80;99.90;;;;;;2039427;29;20031;-71
2022/11/16 05:07:17;;;;;;;15.63;10.55;;;6.80;99.90;;;;;;2039454;29;20050;-70
2022/11/16 05:08:19;;;;;;;15.05;11.00;;;6.80;99.90;;;;;;2031521;29;20028;-70
2022/11/16 05:09:22;;;;;;;16.50;10.93;;;6.80;99.90;;;;;;2023793;29;20032;-71
2022/11/16 05:10:22;;;;;;;14.55;9.95;;;6.80;99.90;;;;;;2031504;29;20067;-71
2022/11/16 05:11:25;;;;;;;14.95;10.73;;;6.90;99.90;;;;;;2031251;29;20515;-71
2022/11/16 05:12:27;;;;;;;16.13;10.95;;;6.90;99.90;;;;;;2023755;29;20040;-70
2022/11/16 05:13:32;;;;;;;14.60;10.18;;;6.90;99.90;;;;;;2032137;29;20032;-71
2022/11/16 05:14:32;;;;;;;15.50;10.15;;;6.90;99.90;;;;;;2031302;29;20028;-70
2022/11/16 05:15:33;;;;;;;13.30;9.60;;;6.90;99.90;;;;;;2023670;29;20143;-70
2022/11/16 05:16:34;;;;;;;13.52;9.88;;;6.90;99.90;;;;;;2023641;29;20024;-70
2022/11/16 05:17:35;;;;;;;14.80;10.73;;;6.90;99.90;;;;;;2024624;29;20072;-70
2022/11/16 05:18:39;;;;;;;14.15;9.52;;;6.90;99.90;;;;;;2027342;29;20021;-71
2022/11/16 05:21:01;;;;;;;14.32;9.65;;;6.90;99.90;;;;;;2025981;29;20035;-71
2022/11/16 05:22:07;;;;;;;14.88;9.90;;;6.90;99.90;;;;;;2024386;29;20034;-71
2022/11/16 05:24:32;;;;;;;14.38;10.13;;;6.90;99.90;;;;;;2031659;29;20051;-71
2022/11/16 05:24:32;;;;;;;15.32;10.57;;;6.90;99.90;;;;;;2039264;29;20031;-71
2022/11/16 05:25:33;;;;;;;14.27;9.82;;;7.00;99.90;;;;;;2031013;29;20454;-71
2022/11/16 05:26:34;;;;;;;13.30;9.85;;;7.00;99.90;;;;;;2031006;29;20602;-70
2022/11/16 05:27:36;;;;;;;13.15;9.35;;;7.00;99.90;;;;;;2031498;29;20035;-70
2022/11/16 05:28:39;;;;;;;14.48;10.05;;;7.00;99.90;;;;;;2031262;29;20095;-70
2022/11/16 05:29:40;;;;;;;14.73;10.10;;;7.00;99.90;;;;;;2031413;29;20524;-70
2022/11/16 05:30:44;;;;;;;13.45;9.68;;;7.00;99.90;;;;;;2023513;29;20683;-70
2022/11/16 05:31:45;;;;;;;13.73;9.95;;;7.00;99.90;;;;;;2024057;29;20508;-71
2022/11/16 05:32:46;;;;;;;14.52;9.80;;;7.00;99.90;;;;;;2031552;29;20102;-70
2022/11/16 05:33:49;;;;;;;14.93;9.70;;;7.00;99.90;;;;;;2031427;29;20127;-70
2022/11/16 05:34:50;;;;;;;13.73;9.85;;;7.00;99.90;;;;;;2031470;29;20490;-71
2022/11/16 05:35:51;;;;;;;12.98;9.60;;;7.00;99.90;;;;;;2031283;29;20462;-70
2022/11/16 05:36:54;;;;;;;14.73;9.77;;;7.00;99.90;;;;;;2023821;29;20123;-70
2022/11/16 05:37:55;;;;;;;12.88;9.57;;;7.00;99.90;;;;;;2031335;29;20047;-70
2022/11/16 05:38:56;;;;;;;11.93;9.18;;;7.00;99.90;;;;;;2031404;29;20028;-70
2022/11/16 05:39:59;;;;;;;12.93;9.50;;;7.00;99.90;;;;;;2031357;29;20024;-70
2022/11/16 05:41:18;;;;;;;13.80;9.43;;;7.00;99.90;;;;;;2031210;29;20156;-70
2022/11/16 05:42:19;;;;;;;14.05;10.02;;;7.00;99.90;;;;;;2039211;29;20032;-70
2022/11/16 05:43:20;;;;;;;14.07;9.73;;;7.00;99.90;;;;;;2039022;29;20042;-72
2022/11/16 05:44:32;;;;;;;14.45;10.10;;;7.00;99.90;;;;;;2031225;29;20091;-72
2022/11/16 05:45:33;;;;;;;13.80;9.95;;;7.00;99.90;;;;;;2031358;29;20123;-71
2022/11/16 05:46:35;;;;;;;13.25;9.43;;;7.00;99.90;;;;;;2039110;29;20031;-71
2022/11/16 05:47:36;;;;;;;21.27;14.02;;;7.00;99.90;;;;;;2046206;29;20019;-71
2022/11/16 05:48:37;;;;;;;21.70;15.05;;;7.00;99.90;;;;;;2039051;29;20058;-70
2022/11/16 05:49:39;;;;;;;18.42;12.90;;;7.00;99.90;;;;;;2031439;29;20040;-71
2022/11/16 05:50:40;;;;;;;21.27;14.73;;;7.00;99.90;;;;;;2038798;29;20122;-71
2022/11/16 05:51:47;;;;;;;28.42;18.88;;;7.00;99.90;;;;;;2039347;29;20050;-71
2022/11/16 05:52:50;;;;;;;20.75;13.88;;;7.00;99.90;;;;;;2031731;29;20095;-71
2022/11/16 05:53:51;;;;;;;21.05;14.25;;;7.00;99.90;;;;;;2031277;29;20032;-71
2022/11/16 05:54:55;;;;;;;22.45;14.50;;;7.00;99.90;;;;;;2031640;29;20031;-71
2022/11/16 05:55:56;;;;;;;22.85;15.90;;;7.00;99.90;;;;;;2030980;29;20559;-70
2022/11/16 05:56:58;;;;;;;16.20;12.18;;;7.00;99.90;;;;;;2039125;29;20036;-71
2022/11/16 05:57:58;;;;;;;21.67;16.55;;;7.00;99.90;;;;;;2046923;28;20032;-71
2022/11/16 05:59:00;;;;;;;17.55;13.98;;;7.00;99.90;;;;;;2046875;28;20030;-70
2022/11/16 06:00:00;;;;;;;15.65;10.88;;;7.00;99.90;;;;;;2046985;29;20034;-70
2022/11/16 06:01:03;;;;;;;14.15;10.07;;;7.00;99.90;;;;;;2039492;29;20031;-72
2022/11/16 06:02:03;;;;;;;15.35;10.32;;;7.00;99.90;;;;;;2046991;29;20058;-70
2022/11/16 06:03:06;;;;;;;14.98;10.23;;;7.00;99.90;;;;;;2038991;29;20529;-71
2022/11/16 06:04:07;;;;;;;14.80;10.43;;;7.00;99.90;;;;;;2031009;29;20435;-73
2022/11/16 06:05:08;;;;;;;15.15;10.13;;;7.00;99.90;;;;;;2039044;29;20031;-71
2022/11/16 06:06:09;;;;;;;15.10;10.85;;;7.00;99.90;;;;;;2038963;29;20573;-70
2022/11/16 06:07:10;;;;;;;14.57;10.30;;;7.00;99.90;;;;;;2038968;29;20046;-71
2022/11/16 06:08:10;;;;;;;14.25;10.10;;;7.00;99.90;;;;;;2046899;28;20023;-70
2022/11/16 06:09:12;;;;;;;13.88;9.50;;;7.00;99.90;;;;;;2046936;29;20501;-71
2022/11/16 06:10:13;;;;;;;14.35;10.18;;;7.10;99.90;;;;;;2046927;28;20070;-71
2022/11/16 06:11:17;;;;;;;13.23;9.57;;;7.10;99.90;;;;;;2046896;28;20033;-71
2022/11/16 06:12:19;;;;;;;13.88;9.48;;;7.00;99.90;;;;;;2047169;28;20485;-72
2022/11/16 06:13:19;;;;;;;14.77;10.57;;;7.10;99.90;;;;;;2039131;29;20134;-71
2022/11/16 06:14:22;;;;;;;14.07;10.18;;;7.00;99.90;;;;;;2031473;29;20028;-71
2022/11/16 06:15:22;;;;;;;14.07;9.88;;;7.00;99.90;;;;;;2039140;28;20027;-71